Time;durP1;ratioP1;P1;durP2;ratioP2;P2;SDS_P1;SDS_P2;PMS_P1;PMS_P2;Temp;Humidity;BMP_temperature;BMP_pressure;BME280_temperature;BME280_humidity;BME280_pressure;Samples;Min_cycle;Max_cycle;Signal;HPM_P1;HPM_P2
2023/08/09 00:01:03;;;;;;;5.93;5.60;;;;;;;14.91;100.00;100783.28;6202517;23;20035;-71
2023/08/09 00:03:31;;;;;;;5.57;5.25;;;;;;;14.90;100.00;100760.44;6195700;23;20030;-70
2023/08/09 00:05:59;;;;;;;7.35;5.93;;;;;;;14.60;100.00;100707.09;6196700;23;20039;-70
2023/08/09 00:08:26;;;;;;;5.80;5.40;;;;;;;14.74;100.00;100720.19;6160685;23;20030;-72
2023/08/09 00:10:52;;;;;;;6.47;5.95;;;;;;;15.08;100.00;100774.19;6197969;23;20039;-70
2023/08/09 00:13:18;;;;;;;6.55;6.15;;;;;;;14.76;100.00;100719.13;6161650;23;20025;-71
2023/08/09 00:15:45;;;;;;;5.85;5.45;;;;;;;14.76;100.00;100719.13;6200810;23;20032;-71
2023/08/09 00:18:11;;;;;;;6.38;5.88;;;;;;;15.04;100.00;100764.78;6180572;23;20024;-71
2023/08/09 00:20:38;;;;;;;5.85;5.45;;;;;;;15.06;100.00;100764.69;6174147;23;20032;-71
2023/08/09 00:23:04;;;;;;;5.93;5.60;;;;;;;15.04;100.00;100764.78;6181630;23;20020;-70
2023/08/09 00:25:30;;;;;;;8.30;5.82;;;;;;;15.04;100.00;100759.50;6193361;23;20057;-71
2023/08/09 00:27:57;;;;;;;6.00;5.60;;;;;;;15.01;100.00;100772.91;6167845;23;20676;-70
2023/08/09 00:30:24;;;;;;;6.10;5.60;;;;;;;14.88;100.00;100740.38;6204899;23;20075;-70
2023/08/09 00:32:51;;;;;;;5.88;5.47;;;;;;;14.83;100.00;100743.31;6202783;22;20077;-71
2023/08/09 00:35:17;;;;;;;6.10;5.70;;;;;;;14.56;100.00;100693.25;6199313;23;20080;-70
2023/08/09 00:37:44;;;;;;;6.05;5.65;;;;;;;14.80;100.00;100727.69;6203775;23;20050;-71
2023/08/09 00:40:13;;;;;;;5.80;5.50;;;;;;;15.12;100.00;100777.47;6182578;23;20024;-72
2023/08/09 00:42:41;;;;;;;6.32;5.82;;;;;;;15.09;100.00;100786.44;6203788;23;20114;-70
2023/08/09 00:45:08;;;;;;;6.30;5.90;;;;;;;15.08;100.00;100782.09;6203723;23;20395;-70
2023/08/09 00:47:36;;;;;;;6.68;6.05;;;;;;;14.66;100.00;100720.72;6204086;23;20039;-70
2023/08/09 00:50:03;;;;;;;6.47;5.90;;;;;;;15.08;100.00;100782.09;6172940;23;20099;-69
2023/08/09 00:52:30;;;;;;;5.90;5.50;;;;;;;14.25;100.00;100660.16;6204550;23;20602;-70
2023/08/09 00:54:57;;;;;;;6.30;5.80;;;;;;;14.52;100.00;100705.78;6205131;23;20368;-71
2023/08/09 00:57:23;;;;;;;6.25;5.85;;;;;;;15.01;100.00;100775.53;6205090;23;20008;-70
2023/08/09 00:59:50;;;;;;;6.32;5.82;;;;;;;15.01;100.00;100780.84;6175727;23;20660;-71
2023/08/09 01:02:16;;;;;;;6.43;6.00;;;;;;;15.09;100.00;100796.16;6161505;23;21373;-71
2023/08/09 01:04:44;;;;;;;7.20;6.65;;;;;;;15.12;100.00;100799.44;6202179;23;20656;-71
2023/08/09 01:07:44;;;;;;;6.95;6.35;;;;;;;14.96;100.00;100778.53;6203872;22;20028;-71
2023/08/09 01:10:18;;;;;;;6.32;5.90;;;;;;;15.04;100.00;100809.72;6168625;23;20635;-71
2023/08/09 01:12:53;;;;;;;7.75;6.15;;;;;;;15.05;100.00;100835.16;6205039;23;20008;-71
2023/08/09 01:15:22;;;;;;;6.25;5.78;;;;;;;14.62;100.00;100809.03;6178426;23;20095;-71
2023/08/09 01:17:51;;;;;;;5.32;5.03;;;;;;;14.31;100.00;100799.63;6203953;23;20016;-71
2023/08/09 01:20:20;;;;;;;5.35;5.05;;;;;;;14.35;100.00;100851.28;6193559;23;20089;-71
2023/08/09 01:23:09;;;;;;;5.70;5.40;;;;;;;14.13;100.00;100836.88;6203681;23;20545;-70
2023/08/09 01:25:35;;;;;;;5.95;5.45;;;;;;;13.93;100.00;100824.97;6203074;23;20344;-70
2023/08/09 01:28:03;;;;;;;5.75;5.40;;;;;;;13.88;100.00;100855.22;6200402;23;20026;-71
2023/08/09 01:30:30;;;;;;;5.90;5.50;;;;;;;13.60;100.00;100819.19;6202280;23;20052;-71
2023/08/09 01:32:56;;;;;;;6.03;5.72;;;;;;;13.89;100.00;100883.28;6194539;23;20103;-71
2023/08/09 01:35:26;;;;;;;6.20;5.70;;;;;;;13.77;100.00;100869.06;6183159;23;20089;-71
2023/08/09 01:37:58;;;;;;;5.82;5.50;;;;;;;13.07;100.00;100753.00;6197395;23;20486;-71
2023/08/09 01:40:25;;;;;;;6.47;6.00;;;;;;;13.40;100.00;100821.28;6180446;23;20017;-71
2023/08/09 01:42:52;;;;;;;5.57;5.25;;;;;;;13.86;100.00;100881.69;6200519;22;20092;-71
2023/08/09 01:45:20;;;;;;;6.00;5.60;;;;;;;13.85;100.00;100898.47;6185258;23;20032;-71
2023/08/09 01:47:47;;;;;;;5.88;5.47;;;;;;;12.88;100.00;100721.69;6199998;23;20500;-71
2023/08/09 01:50:19;;;;;;;6.13;5.70;;;;;;;12.71;100.00;100699.03;6184307;23;20582;-72
2023/08/09 01:52:46;;;;;;;5.53;5.22;;;;;;;13.60;100.00;100845.56;6197704;23;20016;-71
2023/08/09 01:55:18;;;;;;;6.38;5.88;;;;;;;13.88;100.00;100893.00;6171864;23;20029;-70
2023/08/09 01:57:46;;;;;;;5.15;4.88;;;;;;;13.43;100.00;100818.47;6202580;23;20016;-71
2023/08/09 02:00:19;;;;;;;5.50;5.10;;;;;;;13.67;100.00;100863.56;6178187;23;20059;-71
2023/08/09 02:02:47;;;;;;;5.38;5.07;;;;;;;13.88;100.00;100898.28;6200079;22;20611;-71
2023/08/09 02:05:13;;;;;;;5.35;5.00;;;;;;;13.92;100.00;100907.69;6161642;23;20056;-71
2023/08/09 02:07:40;;;;;;;5.55;5.25;;;;;;;13.48;100.00;100832.19;6200741;23;20108;-71
2023/08/09 02:10:09;;;;;;;5.40;5.10;;;;;;;13.92;100.00;100910.31;6205312;23;20012;-71
2023/08/09 02:12:37;;;;;;;5.65;5.35;;;;;;;13.22;100.00;100798.66;6204390;23;20560;-71
2023/08/09 02:15:04;;;;;;;6.25;5.30;;;;;;;13.80;100.00;100891.78;6176605;23;20083;-71
2023/08/09 02:17:31;;;;;;;5.43;5.13;;;;;;;13.92;100.00;100899.78;6200799;23;20828;-71
2023/08/09 02:19:58;;;;;;;5.93;5.53;;;;;;;13.95;100.00;100904.88;6201043;23;20364;-71
2023/08/09 02:22:34;;;;;;;5.55;5.25;;;;;;;13.96;100.00;100905.72;6176157;23;20046;-71
2023/08/09 02:25:00;;;;;;;5.65;5.30;;;;;;;13.94;100.00;100907.59;6175596;23;20066;-70
2023/08/09 02:27:27;;;;;;;5.72;5.43;;;;;;;13.94;100.00;100908.44;6204686;23;20451;-72
2023/08/09 02:29:54;;;;;;;5.50;5.20;;;;;;;13.93;100.00;100898.84;6201053;23;20047;-71
2023/08/09 02:32:21;;;;;;;5.30;5.00;;;;;;;13.95;100.00;100925.97;6166795;23;20007;-71
2023/08/09 02:34:47;;;;;;;5.72;5.43;;;;;;;13.98;100.00;100913.53;6202380;23;20551;-71
2023/08/09 02:37:13;;;;;;;5.80;5.40;;;;;;;13.55;100.00;100854.63;6203120;23;20075;-70
2023/08/09 02:39:40;;;;;;;5.20;4.90;;;;;;;14.01;100.00;100913.31;6201409;23;20629;-71
2023/08/09 02:42:06;;;;;;;6.20;5.80;;;;;;;13.83;100.00;100881.91;6197632;22;20028;-71
2023/08/09 02:44:33;;;;;;;5.40;5.10;;;;;;;14.04;100.00;100918.44;6180746;23;20038;-71
2023/08/09 02:46:59;;;;;;;5.60;5.20;;;;;;;13.89;100.00;100886.78;6198112;23;20628;-70
2023/08/09 02:49:26;;;;;;;5.60;5.28;;;;;;;13.70;100.00;100870.41;6157220;23;20081;-71
2023/08/09 02:51:52;;;;;;;6.82;5.40;;;;;;;14.01;100.00;100926.53;6202872;23;20095;-71
2023/08/09 02:54:19;;;;;;;5.45;5.15;;;;;;;14.00;100.00;100930.13;6175745;23;20227;-71
2023/08/09 02:56:45;;;;;;;5.22;4.93;;;;;;;13.90;100.00;100921.94;6197689;23;20051;-71
2023/08/09 02:59:12;;;;;;;5.07;4.78;;;;;;;13.68;100.00;100893.41;6148659;23;20431;-71
2023/08/09 03:01:38;;;;;;;5.32;5.03;;;;;;;13.60;100.00;100877.22;6176038;23;20024;-71
2023/08/09 03:04:05;;;;;;;5.50;5.20;;;;;;;13.70;100.00;100888.88;6212846;23;20590;-70
2023/08/09 03:06:32;;;;;;;5.63;5.22;;;;;;;13.91;100.00;100934.16;6201969;23;20835;-71
2023/08/09 03:09:02;;;;;;;5.82;5.40;;;;;;;14.00;100.00;100933.59;6159816;23;20013;-72
2023/08/09 03:11:28;;;;;;;5.60;5.22;;;;;;;13.57;100.00;100871.19;6177251;23;20083;-72
2023/08/09 03:13:55;;;;;;;5.45;5.15;;;;;;;13.44;100.00;100864.97;6172515;23;20526;-72
2023/08/09 03:16:22;;;;;;;5.40;5.10;;;;;;;13.55;100.00;100891.53;6178126;23;20032;-71
2023/08/09 03:18:49;;;;;;;5.40;5.10;;;;;;;13.98;100.00;100955.75;6203176;23;20758;-71
2023/08/09 03:21:15;;;;;;;5.35;5.05;;;;;;;13.82;100.00;100925.03;6174927;23;20032;-71
2023/08/09 03:23:42;;;;;;;5.20;4.90;;;;;;;13.95;100.00;100938.31;6195221;23;20019;-71
2023/08/09 03:26:09;;;;;;;5.50;5.15;;;;;;;14.03;100.00;100958.94;6182076;23;20027;-71
2023/08/09 03:28:36;;;;;;;5.13;4.82;;;;;;;14.04;100.00;100958.00;6176214;23;20020;-72
2023/08/09 03:31:03;;;;;;;5.32;5.03;;;;;;;13.78;100.00;100915.63;6200312;23;20121;-71
2023/08/09 03:33:29;;;;;;;5.32;5.03;;;;;;;13.91;100.00;100940.31;6199804;23;20046;-71
2023/08/09 03:35:56;;;;;;;5.20;4.90;;;;;;;13.98;100.00;100958.41;6200183;23;20544;-71
2023/08/09 03:38:22;;;;;;;5.32;5.03;;;;;;;13.57;100.00;100905.47;6194303;23;20056;-71
2023/08/09 03:40:48;;;;;;;5.15;4.85;;;;;;;13.94;100.00;100960.38;6207857;23;20446;-70
2023/08/09 03:43:15;;;;;;;5.30;5.00;;;;;;;13.93;100.00;100953.38;6174151;23;20052;-71
2023/08/09 03:45:42;;;;;;;5.47;5.18;;;;;;;13.77;100.00;100941.16;6202876;23;20042;-71
2023/08/09 03:48:08;;;;;;;6.00;5.40;;;;;;;13.57;100.00;100902.84;6142479;23;20473;-71
2023/08/09 03:50:35;;;;;;;5.50;5.10;;;;;;;13.87;100.00;100959.03;6200856;23;20041;-71
2023/08/09 03:53:01;;;;;;;5.57;5.18;;;;;;;13.72;100.00;100945.03;6204525;23;20080;-71
2023/08/09 03:55:27;;;;;;;5.45;5.10;;;;;;;13.78;100.00;100955.19;6201329;23;20087;-71
2023/08/09 03:57:54;;;;;;;5.30;5.00;;;;;;;12.86;100.00;100806.06;6197521;23;21531;-71
2023/08/09 04:00:22;;;;;;;5.55;5.20;;;;;;;13.49;100.00;100910.38;6171496;23;20489;-71
2023/08/09 04:02:49;;;;;;;5.40;5.10;;;;;;;13.62;100.00;100949.16;6197229;23;20027;-71
2023/08/09 04:05:19;;;;;;;5.63;5.28;;;;;;;13.53;100.00;100940.88;6207979;23;20991;-72
2023/08/09 04:07:47;;;;;;;5.60;5.25;;;;;;;13.84;100.00;100990.91;6202074;23;20028;-72
2023/08/09 04:10:13;;;;;;;5.80;5.40;;;;;;;12.57;100.00;100776.22;6177011;23;20025;-71
2023/08/09 04:12:40;;;;;;;6.63;5.57;;;;;;;13.73;100.00;100965.16;6178275;23;20393;-75
2023/08/09 04:15:07;;;;;;;5.60;5.20;;;;;;;13.84;100.00;100991.75;6170510;23;20024;-72
2023/08/09 04:17:34;;;;;;;5.93;5.55;;;;;;;13.80;100.00;101003.44;6177351;23;20024;-69
2023/08/09 04:20:01;;;;;;;6.00;5.60;;;;;;;13.62;100.00;100980.81;6207119;23;20034;-70
2023/08/09 04:22:28;;;;;;;5.95;5.60;;;;;;;13.77;100.00;101003.59;6178113;23;20023;-69
2023/08/09 04:24:54;;;;;;;5.82;5.50;;;;;;;12.91;100.00;100861.09;6205401;23;20419;-69
2023/08/09 04:27:22;;;;;;;5.55;5.25;;;;;;;13.38;100.00;100952.34;6198915;23;20023;-69
2023/08/09 04:29:48;;;;;;;5.78;5.35;;;;;;;13.71;100.00;101014.53;6173143;23;20095;-71
2023/08/09 04:32:15;;;;;;;5.70;5.30;;;;;;;13.64;100.00;101016.69;6201568;23;20023;-71
2023/08/09 04:34:41;;;;;;;5.80;5.40;;;;;;;13.50;100.00;100988.50;6178749;23;20546;-71
2023/08/09 04:37:07;;;;;;;5.90;5.40;;;;;;;13.71;100.00;101033.84;6197301;23;20474;-71
2023/08/09 04:39:34;;;;;;;6.00;5.60;;;;;;;13.77;100.00;101037.88;6185760;23;20027;-71
2023/08/09 04:42:02;;;;;;;5.80;5.40;;;;;;;13.75;100.00;101019.53;6202039;23;20028;-71
2023/08/09 04:44:31;;;;;;;5.80;5.40;;;;;;;13.96;100.00;101049.03;6170869;23;20020;-72
2023/08/09 04:46:58;;;;;;;5.68;5.28;;;;;;;13.03;100.00;100877.97;6183063;23;20372;-71
2023/08/09 04:49:26;;;;;;;6.28;5.78;;;;;;;14.04;100.00;101035.38;6199766;23;20870;-72
2023/08/09 04:51:53;;;;;;;5.80;5.40;;;;;;;13.77;100.00;100980.72;6202949;23;20059;-71
2023/08/09 04:54:19;;;;;;;5.63;5.32;;;;;;;14.22;100.00;101043.97;6200746;23;20126;-72
2023/08/09 04:56:46;;;;;;;5.65;5.25;;;;;;;14.32;100.00;101054.78;6186207;23;20063;-69
2023/08/09 04:59:12;;;;;;;6.00;5.50;;;;;;;14.32;100.00;101044.25;6200171;23;20019;-71
2023/08/09 05:01:38;;;;;;;6.00;5.60;;;;;;;13.37;100.00;100903.22;6176983;23;20043;-71
2023/08/09 05:04:05;;;;;;;6.05;5.65;;;;;;;13.93;100.00;100993.84;6201158;23;20082;-69
2023/08/09 05:06:31;;;;;;;6.32;5.82;;;;;;;14.28;100.00;101040.09;6200062;23;20136;-70
2023/08/09 05:08:58;;;;;;;5.40;5.10;;;;;;;13.89;100.00;100984.41;6148590;23;20032;-70
2023/08/09 05:11:24;;;;;;;6.22;5.80;;;;;;;14.20;100.00;101024.72;6202470;23;20048;-71
2023/08/09 05:13:50;;;;;;;5.60;5.30;;;;;;;14.35;100.00;101044.91;6201911;23;20015;-71
2023/08/09 05:16:17;;;;;;;5.72;5.32;;;;;;;14.16;100.00;101010.03;6181194;23;20021;-72
2023/08/09 05:18:43;;;;;;;5.57;5.25;;;;;;;13.96;100.00;100969.88;6170219;23;20013;-71
2023/08/09 05:21:10;;;;;;;5.93;5.47;;;;;;;14.24;100.00;101015.66;6181131;23;20029;-70
2023/08/09 05:23:36;;;;;;;6.40;5.90;;;;;;;13.70;100.00;100937.19;6170921;23;20086;-70
2023/08/09 05:26:03;;;;;;;6.20;5.80;;;;;;;14.38;100.00;101046.50;6169832;23;20052;-71
2023/08/09 05:28:29;;;;;;;7.13;6.47;;;;;;;14.44;100.00;101055.84;6197499;23;20032;-71
2023/08/09 05:30:55;;;;;;;7.82;5.63;;;;;;;14.41;100.00;101035.72;6200475;23;20020;-71
2023/08/09 05:33:22;;;;;;;6.57;5.80;;;;;;;14.44;100.00;101037.34;6200902;22;20030;-70
2023/08/09 05:35:48;;;;;;;8.13;5.78;;;;;;;14.69;100.00;101045.44;6199342;23;20570;-71
2023/08/09 05:38:15;;;;;;;7.20;6.60;;;;;;;14.47;100.00;101037.13;6202555;23;20024;-70
2023/08/09 05:40:41;;;;;;;8.18;6.85;;;;;;;14.44;100.00;101003.00;6200811;23;20047;-70
2023/08/09 05:43:08;;;;;;;6.93;6.32;;;;;;;14.84;100.00;101048.03;6171120;23;20656;-71
2023/08/09 05:45:34;;;;;;;7.35;6.68;;;;;;;14.62;100.00;100999.22;6196688;23;20098;-72
2023/08/09 05:48:00;;;;;;;6.68;6.03;;;;;;;15.14;100.00;101051.31;6196965;23;20055;-71
2023/08/09 05:50:27;;;;;;;8.68;7.20;;;;;;;15.25;100.00;101055.88;6197839;23;20095;-71
2023/08/09 05:52:54;;;;;;;7.50;6.90;;;;;;;15.28;100.00;101055.69;6196956;23;20016;-71
2023/08/09 05:55:20;;;;;;;8.40;7.10;;;;;;;15.37;100.00;101033.06;6175719;23;20024;-70
2023/08/09 05:57:49;;;;;;;7.72;7.03;;;;;;;15.45;100.00;101029.91;6168363;23;20336;-70
2023/08/09 06:00:17;;;;;;;8.25;7.43;;;;;;;15.49;100.00;101013.72;6196707;23;20007;-71
2023/08/09 06:02:44;;;;;;;8.60;7.72;;;;;;;15.34;100.00;101005.06;6173459;23;20020;-71
2023/08/09 06:05:26;;;;;;;7.75;6.95;;;;;;;15.37;100.00;100990.75;6201984;23;20031;-71
2023/08/09 06:07:53;;;;;;;8.95;8.05;;;;;;;15.55;100.00;101013.34;6199278;23;20022;-70
2023/08/09 06:10:20;;;;;;;13.27;8.20;;;;;;;15.72;100.00;101025.44;6169185;23;20057;-71
2023/08/09 06:12:47;;;;;;;9.45;7.35;;;;;;;15.61;100.00;100990.88;6196953;23;20082;-71
2023/08/09 06:15:13;;;;;;;8.98;8.00;;;;;;;16.03;100.00;101009.22;6169608;23;20040;-71
2023/08/09 06:17:40;;;;;;;8.23;7.43;;;;;;;16.31;100.00;101003.66;6192403;23;20016;-70
2023/08/09 06:20:07;;;;;;;9.52;7.80;;;;;;;16.62;100.00;100992.66;6168770;23;20054;-71
2023/08/09 06:22:33;;;;;;;8.60;7.78;;;;;;;16.95;100.00;100976.94;6177856;23;20016;-70
2023/08/09 06:25:00;;;;;;;8.05;7.25;;;;;;;17.11;100.00;100955.44;6168821;23;20021;-70
2023/08/09 06:27:26;;;;;;;9.63;7.75;;;;;;;17.26;100.00;100928.69;6192973;23;20076;-71
2023/08/09 06:29:52;;;;;;;8.10;7.30;;;;;;;16.64;100.00;100819.34;6172734;23;20034;-70
2023/08/09 06:32:19;;;;;;;8.00;7.30;;;;;;;16.92;100.00;100831.38;6169740;23;20032;-71
2023/08/09 06:34:48;;;;;;;8.45;7.78;;;;;;;17.13;100.00;100862.50;6200155;23;20087;-73
2023/08/09 06:37:14;;;;;;;7.38;6.85;;;;;;;17.14;100.00;100865.03;6197399;23;20048;-71
2023/08/09 06:39:41;;;;;;;8.95;7.15;;;;;;;16.99;100.00;100850.31;6171840;23;20030;-71
2023/08/09 06:42:08;;;;;;;8.45;7.65;;;;;;;16.91;100.00;100819.06;6182115;23;20019;-71
2023/08/09 06:44:35;;;;;;;9.13;8.02;;;;;;;16.58;100.00;100766.84;6200275;23;20038;-71
2023/08/09 06:47:01;;;;;;;8.40;7.60;;;;;;;17.16;100.00;100862.28;6199574;23;20548;-71
2023/08/09 06:49:28;;;;;;;8.40;7.47;;;;;;;17.14;100.00;100845.63;6181359;23;20023;-70
2023/08/09 06:51:55;;;;;;;7.95;7.35;;;;;;;17.49;100.00;100861.44;6200770;23;20016;-70
2023/08/09 06:54:21;;;;;;;7.47;6.88;;;;;;;17.44;100.00;100817.66;6155850;23;20505;-71
2023/08/09 06:56:53;;;;;;;7.10;6.65;;;;;;;17.35;100.00;100795.34;6197986;23;20083;-71
2023/08/09 06:59:19;;;;;;;7.90;7.30;;;;;;;17.46;100.00;100792.72;6186208;23;20021;-72
2023/08/09 07:01:48;;;;;;;8.00;7.40;;;;;;;17.34;100.00;100762.69;6172794;23;20025;-71
2023/08/09 07:04:16;;;;;;;7.80;7.10;;;;;;;16.86;98.05;100706.44;6194911;23;20019;-71
2023/08/09 07:06:43;;;;;;;7.97;7.30;;;;;;;16.59;99.99;100712.88;6198424;23;20619;-70
2023/08/09 07:09:11;;;;;;;7.78;7.07;;;;;;;17.10;100.00;100784.03;6197819;23;20582;-71
2023/08/09 07:11:37;;;;;;;7.75;7.15;;;;;;;17.29;100.00;100777.28;6203395;23;20026;-70
2023/08/09 07:14:05;;;;;;;8.10;7.40;;;;;;;17.42;94.95;100727.59;6174889;23;20008;-71
2023/08/09 07:16:33;;;;;;;7.63;7.03;;;;;;;17.31;93.73;100677.19;6204004;23;20027;-71
2023/08/09 07:19:00;;;;;;;9.27;7.55;;;;;;;17.49;90.17;100665.09;6198897;22;20680;-71
2023/08/09 07:21:27;;;;;;;8.10;7.38;;;;;;;17.89;88.23;100642.41;6173371;23;20043;-70
2023/08/09 07:23:55;;;;;;;8.38;7.68;;;;;;;18.46;88.58;100704.84;6199472;23;20027;-71
2023/08/09 07:26:23;;;;;;;9.30;7.43;;;;;;;18.63;86.88;100662.69;6181278;23;20039;-71
2023/08/09 07:28:50;;;;;;;8.30;7.60;;;;;;;18.66;83.85;100587.97;6173665;23;20028;-71
2023/08/09 07:31:21;;;;;;;7.65;6.85;;;;;;;19.00;81.81;100585.00;6155313;23;20044;-71
2023/08/09 07:33:48;;;;;;;7.95;7.25;;;;;;;19.22;79.96;100563.47;6173898;23;20054;-71
2023/08/09 07:36:15;;;;;;;7.53;6.95;;;;;;;19.68;79.84;100609.00;6168925;23;20024;-72
2023/08/09 07:38:41;;;;;;;7.55;7.05;;;;;;;19.66;77.16;100513.28;6166980;23;20085;-70
2023/08/09 07:41:08;;;;;;;7.63;7.10;;;;;;;19.91;78.22;100562.47;6203450;23;20051;-71
2023/08/09 07:43:34;;;;;;;7.43;6.93;;;;;;;19.78;76.97;100511.31;6192633;23;20047;-70
2023/08/09 07:46:04;;;;;;;7.93;7.22;;;;;;;19.49;76.27;100472.28;6174606;23;20595;-70
2023/08/09 07:48:31;;;;;;;7.05;6.55;;;;;;;19.17;77.16;100479.75;6199081;23;20452;-71
2023/08/09 07:50:57;;;;;;;7.72;7.13;;;;;;;18.78;80.06;100524.91;6152791;23;20036;-71
2023/08/09 07:53:24;;;;;;;7.68;7.07;;;;;;;18.57;81.55;100571.03;6191194;23;20084;-71
2023/08/09 07:55:50;;;;;;;7.65;6.95;;;;;;;18.51;83.43;100630.88;6171652;23;20030;-72
2023/08/09 07:58:17;;;;;;;7.90;7.10;;;;;;;18.49;84.14;100646.09;6183743;23;20050;-69
2023/08/09 08:00:43;;;;;;;7.53;6.75;;;;;;;18.11;83.54;100572.38;6196324;23;20031;-71
2023/08/09 08:03:16;;;;;;;6.82;6.32;;;;;;;18.31;81.45;100558.19;6199862;23;20490;-70
2023/08/09 08:05:45;;;;;;;7.43;6.93;;;;;;;18.96;81.61;100642.13;6201062;23;20456;-71
2023/08/09 08:08:31;;;;;;;7.47;6.90;;;;;;;18.94;76.33;100474.69;6196119;23;20024;-70
2023/08/09 08:10:58;;;;;;;7.40;6.90;;;;;;;19.59;75.68;100538.81;6174859;23;20734;-69
2023/08/09 08:13:24;;;;;;;7.85;7.25;;;;;;;19.16;75.73;100467.44;6192331;23;20020;-68
2023/08/09 08:15:52;;;;;;;7.07;6.57;;;;;;;19.75;75.62;100561.38;6200619;23;20112;-68
2023/08/09 08:18:18;;;;;;;7.53;7.03;;;;;;;19.76;76.35;100550.56;6195763;23;20081;-69
2023/08/09 08:20:45;;;;;;;7.93;7.28;;;;;;;19.78;76.25;100561.91;6172113;23;20095;-69
2023/08/09 08:23:11;;;;;;;7.20;6.70;;;;;;;19.92;74.44;100523.34;6198872;23;20024;-69
2023/08/09 08:25:38;;;;;;;7.25;6.68;;;;;;;19.28;74.59;100467.16;6169218;23;20040;-68
2023/08/09 08:28:05;;;;;;;6.65;6.25;;;;;;;19.21;74.81;100482.00;6194183;23;20126;-71
2023/08/09 08:30:32;;;;;;;8.48;6.68;;;;;;;19.24;75.49;100512.78;6180429;23;20044;-69
2023/08/09 08:32:58;;;;;;;7.65;7.07;;;;;;;18.48;75.44;100439.81;6174727;23;20086;-68
2023/08/09 08:35:33;;;;;;;7.65;6.88;;;;;;;18.73;76.99;100566.03;6168555;23;20721;-69
2023/08/09 08:38:00;;;;;;;7.60;6.93;;;;;;;18.55;77.58;100562.34;6192742;23;20094;-69
2023/08/09 08:40:26;;;;;;;7.65;6.70;;;;;;;18.42;77.84;100557.28;6199641;23;20126;-69
2023/08/09 08:42:53;;;;;;;7.25;6.65;;;;;;;18.90;78.00;100624.88;6171049;23;20541;-70
2023/08/09 08:45:20;;;;;;;7.55;6.95;;;;;;;18.56;76.62;100528.63;6189810;23;20028;-69
2023/08/09 08:47:47;;;;;;;7.50;6.80;;;;;;;18.80;75.57;100561.03;6194267;23;20028;-69
2023/08/09 08:50:15;;;;;;;7.53;6.90;;;;;;;19.25;76.07;100634.22;6200807;23;20031;-69
2023/08/09 08:52:45;;;;;;;7.43;6.78;;;;;;;19.26;74.13;100553.38;6174776;23;20091;-69
2023/08/09 08:55:12;;;;;;;7.38;6.85;;;;;;;19.90;74.08;100623.84;6204640;23;20027;-70
2023/08/09 08:57:40;;;;;;;7.45;6.90;;;;;;;19.95;71.32;100512.41;6169504;23;20012;-69
2023/08/09 09:00:15;;;;;;;8.63;7.72;;;;;;;20.41;70.19;100537.31;6200681;23;20087;-69
2023/08/09 09:02:52;;;;;;;7.20;6.68;;;;;;;20.84;69.72;100561.66;6177430;23;20611;-69
2023/08/09 09:05:19;;;;;;;7.22;6.72;;;;;;;21.15;66.24;100462.56;6202328;23;20725;-69
2023/08/09 09:07:50;;;;;;;8.40;7.55;;;;;;;21.09;66.68;100506.75;6200837;22;20008;-69
2023/08/09 09:10:21;;;;;;;7.70;7.10;;;;;;;21.10;66.40;100492.38;6198529;23;20020;-69
2023/08/09 09:12:50;;;;;;;8.43;7.53;;;;;;;20.74;66.54;100478.22;6206532;23;20016;-69
2023/08/09 09:15:17;;;;;;;7.40;6.80;;;;;;;20.30;67.45;100478.88;6196986;23;20057;-69
2023/08/09 09:17:44;;;;;;;8.05;7.35;;;;;;;19.04;68.46;100382.47;6171700;23;20344;-69
2023/08/09 09:20:23;;;;;;;8.07;7.38;;;;;;;19.63;70.08;100555.34;6198452;23;20059;-69
2023/08/09 09:22:50;;;;;;;6.60;6.20;;;;;;;19.65;67.45;100469.00;6176074;23;20032;-69
2023/08/09 09:25:17;;;;;;;7.30;6.80;;;;;;;20.21;65.16;100427.31;6147550;23;20478;-70
2023/08/09 09:27:49;;;;;;;9.27;8.00;;;;;;;20.57;66.06;100520.69;6195509;23;20031;-69
2023/08/09 09:30:19;;;;;;;6.97;6.30;;;;;;;20.48;62.26;100340.28;6200706;23;20032;-69
2023/08/09 09:32:52;;;;;;;7.00;6.50;;;;;;;20.69;62.58;100412.00;6172977;23;20574;-71
2023/08/09 09:35:19;;;;;;;;;;;;;;;20.87;62.32;100428.00;6196917;23;20055;-69
2023/08/09 09:37:50;;;;;;;7.25;6.75;;;;;;;21.02;63.66;100486.97;6200473;23;19915;-69
2023/08/09 09:40:33;;;;;;;6.75;6.35;;;;;;;21.29;61.82;100430.84;6202825;23;20013;-72
2023/08/09 09:43:04;;;;;;;7.32;6.63;;;;;;;21.25;59.07;100297.88;6203335;23;20029;-69
2023/08/09 09:45:32;;;;;;;7.03;6.53;;;;;;;21.13;61.74;100433.38;6200108;23;20035;-70
2023/08/09 09:48:01;;;;;;;7.68;7.00;;;;;;;21.41;61.39;100490.16;6202187;23;20036;-70
2023/08/09 09:50:29;;;;;;;7.28;6.78;;;;;;;21.51;58.73;100388.63;6201816;23;20036;-70
2023/08/09 09:52:57;;;;;;;6.60;6.22;;;;;;;21.29;57.05;100227.16;6164678;23;20036;-69
2023/08/09 09:55:26;;;;;;;7.38;6.78;;;;;;;21.38;57.89;100316.91;6196980;23;20023;-70
2023/08/09 09:57:54;;;;;;;7.20;6.70;;;;;;;21.08;57.90;100291.59;6198730;23;20027;-69
2023/08/09 10:00:20;;;;;;;7.10;6.60;;;;;;;20.86;57.68;100306.28;6201654;23;20051;-70
2023/08/09 10:02:49;;;;;;;7.13;6.63;;;;;;;20.90;55.94;100254.28;6194420;23;20075;-69
2023/08/09 10:05:24;;;;;;;7.20;6.70;;;;;;;20.96;55.14;100276.84;6170033;23;20048;-69
2023/08/09 10:07:51;;;;;;;6.93;6.43;;;;;;;21.18;56.23;100340.34;6198456;23;20012;-69
2023/08/09 10:10:20;;;;;;;7.20;6.70;;;;;;;21.78;54.08;100355.50;6193787;23;20076;-72
2023/08/09 10:12:52;;;;;;;7.40;6.90;;;;;;;21.52;56.05;100369.75;6158438;23;20083;-71
2023/08/09 10:15:24;;;;;;;6.85;6.43;;;;;;;21.82;54.63;100402.28;6195509;23;20031;-69
2023/08/09 10:17:54;;;;;;;6.50;6.10;;;;;;;21.73;54.02;100397.91;6189137;23;20039;-69
2023/08/09 10:20:23;;;;;;;7.03;6.50;;;;;;;22.22;53.18;100472.91;6201635;23;20074;-68
2023/08/09 10:22:50;;;;;;;6.60;6.15;;;;;;;22.50;52.19;100476.22;6202587;23;20024;-68
2023/08/09 10:25:16;;;;;;;6.90;6.22;;;;;;;22.20;51.37;100399.22;6204135;23;20080;-69
2023/08/09 10:27:58;;;;;;;6.63;6.22;;;;;;;22.60;52.05;100534.09;6173199;23;20558;-69
2023/08/09 10:30:28;;;;;;;6.55;6.15;;;;;;;22.70;51.06;100514.19;6179683;23;20119;-69
2023/08/09 10:32:57;;;;;;;7.28;6.68;;;;;;;22.92;51.75;100557.41;6196660;23;20020;-70
2023/08/09 10:35:44;;;;;;;6.57;6.18;;;;;;;23.33;52.41;100643.16;6175484;23;20083;-69
2023/08/09 10:38:19;;;;;;;6.53;6.13;;;;;;;22.64;51.49;100546.13;6197743;23;20076;-69
2023/08/09 10:40:52;;;;;;;6.75;6.35;;;;;;;22.58;52.13;100603.78;6185952;23;20093;-70
2023/08/09 10:43:21;;;;;;;6.53;6.13;;;;;;;23.37;49.53;100536.56;6202778;23;20671;-70
2023/08/09 10:45:49;;;;;;;6.63;6.20;;;;;;;23.47;48.17;100518.47;6202898;23;20027;-69
2023/08/09 10:48:47;;;;;;;6.60;6.20;;;;;;;23.13;45.77;100374.09;6198282;23;20576;-70
2023/08/09 10:51:13;;;;;;;6.90;6.50;;;;;;;23.39;46.92;100582.75;6149521;23;20105;-69
2023/08/09 10:53:58;;;;;;;6.38;5.97;;;;;;;22.34;47.48;100523.47;6197357;23;20016;-70
2023/08/09 10:56:35;;;;;;;6.30;5.90;;;;;;;22.48;47.46;100544.22;6200245;23;20135;-70
2023/08/09 10:59:23;;;;;;;6.72;6.22;;;;;;;22.94;46.54;100608.94;6201576;23;20044;-69
2023/08/09 11:01:51;;;;;;;6.85;6.35;;;;;;;23.72;46.56;100684.59;6175320;23;20050;-70
2023/08/09 11:04:17;;;;;;;6.50;6.10;;;;;;;23.24;47.79;100676.31;6173572;23;20084;-70
2023/08/09 11:06:47;;;;;;;6.88;6.40;;;;;;;23.02;48.79;100686.59;6196115;23;20020;-70
2023/08/09 11:09:21;;;;;;;6.70;6.20;;;;;;;23.80;48.17;100739.06;6177056;23;20016;-69
2023/08/09 11:11:51;;;;;;;8.50;6.30;;;;;;;23.85;47.23;100693.00;6173656;23;20042;-70
2023/08/09 11:14:21;;;;;;;6.35;5.95;;;;;;;24.07;46.32;100683.44;6174257;23;20086;-70
2023/08/09 11:16:49;;;;;;;6.93;6.38;;;;;;;22.98;47.09;100586.19;6199217;23;20023;-69
2023/08/09 11:19:20;;;;;;;6.68;6.18;;;;;;;23.37;48.45;100735.56;6178647;23;20027;-69
2023/08/09 11:22:01;;;;;;;6.80;6.40;;;;;;;23.49;47.34;100704.81;6190372;23;20017;-71
2023/08/09 11:24:29;;;;;;;6.30;5.90;;;;;;;23.81;48.02;100788.97;6200971;23;20038;-71